Time;durP1;ratioP1;P1;durP2;ratioP2;P2;SDS_P1;SDS_P2;PMS_P1;PMS_P2;Temp;Humidity;BMP_temperature;BMP_pressure;BME280_temperature;BME280_humidity;BME280_pressure;Samples;Min_cycle;Max_cycle;Signal;HPM_P1;HPM_P2
2021/01/29 00:01:36;;;;;;;54.65;18.65;;;;;;;2.52;100.00;99843.03;5089127;28;20044;-62
2021/01/29 00:04:04;;;;;;;49.08;18.17;;;;;;;2.55;100.00;99832.19;5089398;28;20047;-61
2021/01/29 00:06:29;;;;;;;52.63;18.88;;;;;;;2.54;100.00;99834.97;5089113;28;20043;-61
2021/01/29 00:08:55;;;;;;;54.08;19.38;;;;;;;2.60;100.00;99818.56;5085385;28;20117;-61
2021/01/29 00:11:21;;;;;;;52.28;19.23;;;;;;;2.58;100.00;99816.03;5090473;28;20056;-60
2021/01/29 00:13:47;;;;;;;54.70;19.30;;;;;;;2.59;100.00;99804.47;5088026;28;20060;-62
2021/01/29 00:16:13;;;;;;;56.95;20.77;;;;;;;2.58;100.00;99791.28;5089874;28;20052;-62
2021/01/29 00:18:39;;;;;;;53.90;19.33;;;;;;;2.57;100.00;99787.75;5086880;28;20052;-62
2021/01/29 00:21:06;;;;;;;57.65;19.65;;;;;;;2.58;100.00;99772.69;5089874;28;20048;-61
2021/01/29 00:23:32;;;;;;;63.20;21.42;;;;;;;2.58;100.00;99767.38;5089571;28;20048;-61
2021/01/29 00:25:58;;;;;;;55.53;19.73;;;;;;;2.59;100.00;99764.59;5090062;28;20507;-61
2021/01/29 00:28:25;;;;;;;67.93;22.35;;;;;;;2.58;100.00;99748.78;5086754;28;20044;-61
2021/01/29 00:30:52;;;;;;;71.63;22.10;;;;;;;2.60;100.00;99742.38;5089315;28;20048;-61
2021/01/29 00:33:20;;;;;;;54.90;20.20;;;;;;;2.59;100.00;99738.03;5089469;28;20052;-61
2021/01/29 00:35:47;;;;;;;70.40;21.73;;;;;;;2.62;100.00;99726.31;5086340;28;20055;-61
2021/01/29 00:38:14;;;;;;;56.92;18.65;;;;;;;2.65;100.00;99726.13;5087677;28;20270;-61
2021/01/29 00:40:40;;;;;;;65.60;20.05;;;;;;;2.68;100.00;99701.13;5085733;28;20056;-61
2021/01/29 00:43:07;;;;;;;56.53;19.15;;;;;;;2.65;100.00;99694.25;5086001;28;20055;-61
2021/01/29 00:45:35;;;;;;;67.07;20.55;;;;;;;2.65;100.00;99688.94;5090561;28;20044;-60
2021/01/29 00:48:02;;;;;;;71.23;21.03;;;;;;;2.67;100.00;99681.69;5089361;28;20413;-62
2021/01/29 00:50:28;;;;;;;68.40;20.67;;;;;;;2.70;100.00;99668.16;5086921;28;20109;-60
2021/01/29 00:52:54;;;;;;;71.30;21.48;;;;;;;2.66;100.00;99669.34;5088601;28;20051;-62
2021/01/29 00:55:22;;;;;;;61.03;19.98;;;;;;;2.69;100.00;99663.81;5088599;28;20047;-61
2021/01/29 00:57:48;;;;;;;64.28;20.48;;;;;;;2.69;100.00;99653.19;5086604;28;20060;-62
2021/01/29 01:00:16;;;;;;;64.15;21.30;;;;;;;2.68;100.00;99656.81;5087585;28;20515;-61
2021/01/29 01:02:42;;;;;;;67.72;20.65;;;;;;;2.67;100.00;99648.97;5072605;28;20406;-62
2021/01/29 01:05:11;;;;;;;67.93;21.35;;;;;;;2.72;100.00;99646.78;5070187;28;20045;-62
2021/01/29 01:07:36;;;;;;;64.88;19.98;;;;;;;2.75;100.00;99650.09;5088392;28;20044;-61
2021/01/29 01:10:04;;;;;;;78.38;22.50;;;;;;;2.75;100.00;99636.81;5086650;28;20534;-61
2021/01/29 01:12:31;;;;;;;80.60;21.08;;;;;;;2.78;100.00;99630.38;5088918;28;20044;-62
2021/01/29 01:14:57;;;;;;;68.82;22.15;;;;;;;2.78;100.00;99630.38;5087308;28;20056;-61
2021/01/29 01:17:24;;;;;;;76.80;22.17;;;;;;;2.77;100.00;99626.88;5087973;28;20048;-61
2021/01/29 01:19:49;;;;;;;89.90;25.27;;;;;;;2.77;100.00;99626.88;5089509;28;20520;-62
2021/01/29 01:22:16;;;;;;;84.30;23.27;;;;;;;2.79;100.00;99614.31;5089198;28;20060;-61
2021/01/29 01:24:42;;;;;;;93.68;24.60;;;;;;;2.81;100.00;99614.19;5088704;28;20071;-61
2021/01/29 01:27:08;;;;;;;88.18;25.75;;;;;;;2.84;100.00;99599.84;5089041;28;20085;-61
2021/01/29 01:29:36;;;;;;;116.10;26.98;;;;;;;2.80;100.00;99597.44;5081848;28;20052;-61
2021/01/29 01:32:02;;;;;;;84.75;21.70;;;;;;;2.87;100.00;99583.66;5087566;28;20058;-61
2021/01/29 01:34:28;;;;;;;112.53;26.92;;;;;;;2.87;100.00;99586.31;5087919;28;20063;-61
2021/01/29 01:36:54;;;;;;;96.35;25.05;;;;;;;2.90;100.00;99580.75;5086732;28;20052;-61
2021/01/29 01:39:20;;;;;;;115.95;26.05;;;;;;;2.89;100.00;99565.81;5087357;28;20048;-61
2021/01/29 01:41:46;;;;;;;95.47;23.45;;;;;;;2.90;100.00;99559.50;5088264;28;20055;-61
2021/01/29 01:44:34;;;;;;;95.22;23.73;;;;;;;2.90;100.00;99559.50;5086676;28;20044;-61
2021/01/29 01:47:07;;;;;;;124.88;26.95;;;;;;;2.90;100.00;99549.75;5082180;28;20090;-61
2021/01/29 01:49:36;;;;;;;159.15;31.13;;;;;;;2.93;100.00;99536.22;5088417;28;20050;-61
2021/01/29 01:52:07;;;;;;;103.10;24.60;;;;;;;2.98;100.00;99536.69;5087443;28;20051;-61
2021/01/29 01:54:42;;;;;;;133.35;28.10;;;;;;;2.99;100.00;99532.22;5082397;28;20051;-61
2021/01/29 01:57:10;;;;;;;122.43;28.75;;;;;;;2.98;100.00;99525.22;5088258;28;20054;-61
2021/01/29 01:59:40;;;;;;;143.43;31.02;;;;;;;3.04;100.00;99511.44;5083327;28;20044;-60
2021/01/29 02:02:10;;;;;;;117.68;27.50;;;;;;;3.05;100.00;99499.84;5086247;22;20064;-61
2021/01/29 02:04:41;;;;;;;108.85;25.98;;;;;;;3.05;100.00;99499.84;5073137;28;20485;-60
2021/01/29 02:07:16;;;;;;;155.77;32.28;;;;;;;3.04;100.00;99492.81;5079510;28;20501;-61
2021/01/29 02:09:45;;;;;;;113.18;27.75;;;;;;;3.05;100.00;99489.22;5081390;28;20098;-60
2021/01/29 02:12:11;;;;;;;;;;;;;;;3.09;100.00;99480.03;5081205;28;20049;-60
2021/01/29 02:14:37;;;;;;;98.93;25.95;;;;;;;3.11;100.00;99470.09;5080068;28;19926;-61
2021/01/29 02:17:11;;;;;;;119.57;27.50;;;;;;;3.12;100.00;99465.63;5079868;28;20067;-61
2021/01/29 02:20:22;;;;;;;117.40;29.13;;;;;;;3.11;100.00;99456.81;5080344;28;20058;-60
2021/01/29 02:23:18;;;;;;;116.00;27.23;;;;;;;3.11;100.00;99451.50;5081564;28;20386;-60
2021/01/29 02:26:25;;;;;;;103.43;25.95;;;;;;;3.12;100.00;99442.56;5081020;28;20042;-61
2021/01/29 02:29:29;;;;;;;99.55;26.80;;;;;;;3.15;100.00;99426.34;5078693;28;20049;-60
2021/01/29 02:32:32;;;;;;;92.85;24.60;;;;;;;3.27;100.00;99426.34;5076975;28;20093;-60
2021/01/29 02:35:35;;;;;;;92.90;25.15;;;;;;;3.21;100.00;99413.53;5042638;28;20121;-60
2021/01/29 02:38:39;;;;;;;104.00;24.75;;;;;;;3.24;100.00;99400.84;5078817;28;20052;-61
2021/01/29 02:41:25;;;;;;;87.70;24.52;;;;;;;3.28;100.00;99396.09;5088091;22;20048;-61
2021/01/29 02:44:05;;;;;;;78.20;22.08;;;;;;;3.30;100.00;99387.03;4980024;28;20444;-61
2021/01/29 02:46:39;;;;;;;77.10;22.67;;;;;;;3.32;100.00;99378.94;4981782;28;20035;-61
2021/01/29 02:49:13;;;;;;;79.00;22.55;;;;;;;3.30;100.00;99372.91;4981439;28;20055;-61
2021/01/29 02:51:51;;;;;;;69.60;20.98;;;;;;;3.36;100.00;99367.09;4980940;28;20555;-61
2021/01/29 02:54:22;;;;;;;77.97;19.95;;;;;;;3.43;100.00;99354.09;4980198;28;20054;-62
2021/01/29 02:56:55;;;;;;;64.72;21.25;;;;;;;3.47;100.00;99348.41;4982676;28;20503;-61
2021/01/29 02:59:30;;;;;;;62.35;19.30;;;;;;;3.49;100.00;99333.16;4980239;28;20433;-61
2021/01/29 03:02:00;;;;;;;59.58;18.83;;;;;;;3.53;100.00;99328.41;4981680;28;20493;-62
2021/01/29 03:04:31;;;;;;;59.97;19.30;;;;;;;3.57;100.00;99329.03;4958273;28;20102;-62
2021/01/29 03:07:03;;;;;;;60.58;20.30;;;;;;;3.63;100.00;99317.84;4972526;28;20057;-61
2021/01/29 03:09:40;;;;;;;58.63;20.10;;;;;;;3.61;100.00;99302.03;4954821;28;20432;-61
2021/01/29 03:12:13;;;;;;;55.88;18.85;;;;;;;3.67;100.00;99303.31;4960276;28;20392;-60
2021/01/29 03:14:43;;;;;;;54.53;19.27;;;;;;;3.72;100.00;99293.13;4966890;28;20042;-62
2021/01/29 03:17:15;;;;;;;51.20;16.15;;;;;;;3.78;100.00;99279.28;4962844;28;20204;-61
2021/01/29 03:19:48;;;;;;;43.50;15.45;;;;;;;3.80;100.00;99281.84;4955967;28;20649;-60
2021/01/29 03:22:20;;;;;;;52.50;17.25;;;;;;;3.78;100.00;99265.97;4970027;28;20062;-61
2021/01/29 03:24:50;;;;;;;51.78;17.10;;;;;;;3.81;100.00;99263.09;4981131;28;20133;-61
2021/01/29 03:27:22;;;;;;;50.92;16.92;;;;;;;3.84;100.00;99254.84;4959349;28;20062;-60
2021/01/29 03:29:56;;;;;;;51.28;17.48;;;;;;;3.86;100.00;99244.06;4960035;28;20089;-60
2021/01/29 03:32:24;;;;;;;45.13;16.45;;;;;;;3.92;100.00;99237.34;4983224;28;20046;-61
2021/01/29 03:34:57;;;;;;;45.88;16.23;;;;;;;3.92;100.00;99237.34;4984564;28;20602;-61
2021/01/29 03:37:30;;;;;;;50.35;18.40;;;;;;;3.92;100.00;99237.34;4983721;28;20057;-60
2021/01/29 03:39:56;;;;;;;44.88;15.50;;;;;;;3.94;100.00;99219.44;4985493;28;20058;-61
2021/01/29 03:42:31;;;;;;;52.20;17.98;;;;;;;3.92;100.00;99208.91;4992454;28;20156;-61
2021/01/29 03:45:07;;;;;;;52.63;18.02;;;;;;;3.92;100.00;99205.41;5004699;28;20097;-60
2021/01/29 03:47:36;;;;;;;45.03;15.98;;;;;;;3.94;100.00;99193.63;5003310;28;20464;-61
2021/01/29 03:50:14;;;;;;;48.70;17.30;;;;;;;3.97;100.00;99197.84;5005081;28;20049;-60
2021/01/29 03:52:47;;;;;;;61.95;19.00;;;;;;;4.00;100.00;99193.09;5004945;28;20096;-60
2021/01/29 03:55:21;;;;;;;61.08;19.05;;;;;;;4.00;100.00;99176.28;4998467;28;20052;-61
2021/01/29 03:57:57;;;;;;;53.97;18.27;;;;;;;4.08;100.00;99173.81;5006026;28;20050;-60
2021/01/29 04:00:36;;;;;;;53.88;18.63;;;;;;;4.12;100.00;99169.91;5002843;28;20054;-60
2021/01/29 04:03:09;;;;;;;62.33;20.63;;;;;;;4.13;100.00;99160.06;5003620;28;20053;-61
2021/01/29 04:05:44;;;;;;;51.83;18.88;;;;;;;4.15;100.00;99161.63;5004818;28;20050;-61
2021/01/29 04:08:15;;;;;;;52.20;18.05;;;;;;;4.22;100.00;99153.91;5004748;28;20487;-61
2021/01/29 04:10:47;;;;;;;52.38;18.05;;;;;;;4.30;100.00;99156.75;5002292;28;20050;-61
2021/01/29 04:13:21;;;;;;;51.75;18.90;;;;;;;4.32;100.00;99137.97;5002330;28;20050;-60
2021/01/29 04:15:49;;;;;;;54.28;18.70;;;;;;;4.31;100.00;99138.94;5004729;28;20054;-61
2021/01/29 04:18:21;;;;;;;61.13;18.98;;;;;;;4.30;100.00;99135.44;5002857;28;20060;-60
2021/01/29 04:20:50;;;;;;;55.28;18.40;;;;;;;4.30;100.00;99129.25;5003397;28;20058;-61
2021/01/29 04:23:25;;;;;;;52.85;18.63;;;;;;;4.41;100.00;99125.63;5076612;22;20052;-62
2021/01/29 04:25:57;;;;;;;53.15;19.35;;;;;;;4.41;100.00;99121.13;5066486;28;20048;-60
2021/01/29 04:28:28;;;;;;;50.50;19.15;;;;;;;4.44;100.00;99115.53;5063302;28;20057;-61
2021/01/29 04:30:56;;;;;;;64.75;17.20;;;;;;;4.48;100.00;99100.97;5053886;28;20048;-61
2021/01/29 04:33:26;;;;;;;52.03;18.25;;;;;;;4.47;100.00;99099.25;5048577;28;20053;-61
2021/01/29 04:35:54;;;;;;;55.58;17.60;;;;;;;4.53;100.00;99098.72;5037502;28;20056;-60
2021/01/29 04:38:25;;;;;;;58.67;19.02;;;;;;;4.53;100.00;99087.22;5036267;28;20096;-61
2021/01/29 04:40:58;;;;;;;50.47;18.13;;;;;;;4.61;100.00;99095.34;5038151;28;20102;-60
2021/01/29 04:43:44;;;;;;;48.92;17.77;;;;;;;4.57;100.00;99078.78;5035619;28;20122;-61
2021/01/29 04:46:44;;;;;;;48.42;16.80;;;;;;;4.62;100.00;99074.88;5041729;28;20435;-62
2021/01/29 04:49:24;;;;;;;48.72;16.77;;;;;;;4.64;100.00;99062.22;5044294;28;20052;-61
2021/01/29 04:52:29;;;;;;;54.25;17.00;;;;;;;4.77;100.00;99062.78;5050028;28;20064;-60
2021/01/29 04:55:23;;;;;;;51.60;16.85;;;;;;;4.76;100.00;99065.59;5045075;28;20048;-60
2021/01/29 04:57:55;;;;;;;52.47;17.98;;;;;;;4.76;100.00;99050.44;5048125;28;20056;-61
2021/01/29 05:00:47;;;;;;;49.33;18.00;;;;;;;4.78;100.00;99037.81;5040528;28;20052;-61
2021/01/29 05:03:30;;;;;;;46.17;16.45;;;;;;;4.86;100.00;99040.59;5048388;28;20037;-62
2021/01/29 05:06:17;;;;;;;55.78;19.05;;;;;;;4.89;100.00;99032.31;5040325;28;20053;-61
2021/01/29 05:09:21;;;;;;;61.17;18.80;;;;;;;4.95;100.00;99032.69;5065103;28;20057;-62
2021/01/29 05:12:07;;;;;;;44.58;18.13;;;;;;;5.02;100.00;99033.81;5068842;28;20040;-61
2021/01/29 05:15:07;;;;;;;58.83;19.50;;;;;;;5.17;100.00;99027.03;5067108;28;20048;-60
2021/01/29 05:18:05;;;;;;;57.58;20.40;;;;;;;5.41;100.00;99029.16;5065177;28;20071;-61
2021/01/29 05:21:09;;;;;;;54.08;21.10;;;;;;;5.61;100.00;99019.22;5104510;22;20416;-61
2021/01/29 05:24:13;;;;;;;56.67;20.50;;;;;;;5.76;100.00;99016.06;5007000;28;20059;-61
2021/01/29 05:27:22;;;;;;;52.50;19.23;;;;;;;5.85;100.00;99012.47;4984527;28;20403;-61
2021/01/29 05:30:00;;;;;;;51.60;19.73;;;;;;;5.92;100.00;99010.88;4996690;28;20058;-61
2021/01/29 05:32:56;;;;;;;57.92;20.92;;;;;;;6.04;100.00;99008.00;4993596;28;20046;-60
2021/01/29 05:35:43;;;;;;;62.50;22.10;;;;;;;6.02;100.00;99001.97;5009909;28;20112;-60
2021/01/29 05:38:50;;;;;;;62.00;22.27;;;;;;;6.06;100.00;99003.34;5000388;28;20049;-61
2021/01/29 05:41:34;;;;;;;73.47;22.70;;;;;;;6.07;100.00;98995.19;5007732;28;20050;-61
2021/01/29 05:44:34;;;;;;;59.42;24.05;;;;;;;6.13;100.00;98981.22;5010066;28;20050;-61
2021/01/29 05:47:23;;;;;;;65.20;22.38;;;;;;;6.11;100.00;98988.53;5008067;28;21719;-61
2021/01/29 05:50:08;;;;;;;69.03;24.52;;;;;;;6.16;100.00;98974.72;5008108;28;20499;-61
2021/01/29 05:52:53;;;;;;;75.95;24.85;;;;;;;6.24;100.00;98973.94;5009097;28;20053;-61
2021/01/29 05:55:47;;;;;;;75.78;24.02;;;;;;;6.26;100.00;98964.78;5000911;28;20128;-62
2021/01/29 05:58:23;;;;;;;83.72;26.27;;;;;;;6.20;100.00;98965.41;5005452;28;20447;-61
2021/01/29 06:01:05;;;;;;;71.35;24.92;;;;;;;6.24;100.00;98965.94;5034935;22;20067;-61
2021/01/29 06:03:46;;;;;;;82.97;27.45;;;;;;;6.29;100.00;98956.47;5054593;28;20044;-61
2021/01/29 06:06:33;;;;;;;86.07;27.30;;;;;;;6.29;100.00;98952.97;5054889;28;20052;-60
2021/01/29 06:09:20;;;;;;;73.03;26.70;;;;;;;6.38;100.00;98956.53;5002711;28;20060;-61
2021/01/29 06:12:01;;;;;;;88.70;28.70;;;;;;;6.40;100.00;98955.34;5056678;28;20052;-61
2021/01/29 06:15:02;;;;;;;74.82;25.13;;;;;;;6.45;100.00;98949.56;5053487;28;20098;-61
2021/01/29 06:17:49;;;;;;;75.88;26.95;;;;;;;6.51;100.00;98945.41;5037790;28;20086;-61
2021/01/29 06:20:44;;;;;;;91.38;27.30;;;;;;;6.45;100.00;98947.72;5034308;28;20053;-61
2021/01/29 06:23:37;;;;;;;76.25;27.00;;;;;;;6.54;100.00;98935.25;5037969;28;20053;-61
2021/01/29 06:26:30;;;;;;;72.75;23.88;;;;;;;6.63;100.00;98945.00;5034816;28;20054;-61
2021/01/29 06:29:23;;;;;;;68.00;24.25;;;;;;;6.70;100.00;98944.34;5055596;28;20052;-61
2021/01/29 06:32:36;;;;;;;67.85;22.90;;;;;;;6.70;100.00;98949.69;5054539;28;20106;-61
2021/01/29 06:35:33;;;;;;;73.93;24.05;;;;;;;6.72;100.00;98942.38;5055016;28;20052;-61
2021/01/29 06:38:27;;;;;;;57.20;22.42;;;;;;;6.87;100.00;98945.28;5043988;28;20056;-61
2021/01/29 06:41:10;;;;;;;42.90;17.55;;;;;;;6.85;100.00;98948.13;5032636;28;20060;-62
2021/01/29 06:43:52;;;;;;;40.08;17.73;;;;;;;6.96;100.00;98949.69;5056513;28;20401;-62
2021/01/29 06:46:39;;;;;;;25.77;12.52;;;;;;;6.97;100.00;98957.53;5055880;28;20393;-61
2021/01/29 06:49:19;;;;;;;23.40;10.23;;;;;;;6.94;100.00;98957.88;5052647;28;20055;-62
2021/01/29 06:52:13;;;;;;;15.80;7.40;;;;;;;6.98;100.00;98956.56;5058780;28;20409;-62
2021/01/29 06:55:14;;;;;;;11.68;6.00;;;;;;;6.99;100.00;98965.41;5051469;28;20098;-61
2021/01/29 07:00:34;;;;;;;11.00;5.22;;;;;;;7.00;100.00;98970.59;5078870;23;20059;-61
2021/01/29 07:03:29;;;;;;;10.82;5.45;;;;;;;7.00;100.00;98965.25;5061294;28;20049;-61
2021/01/29 07:06:15;;;;;;;9.23;4.82;;;;;;;7.00;100.00;98978.63;5074859;28;20056;-61
2021/01/29 07:08:58;;;;;;;9.77;4.90;;;;;;;7.05;100.00;98977.31;5068632;28;21994;-62
2021/01/29 07:12:04;;;;;;;10.27;4.85;;;;;;;7.01;100.00;98974.94;5071327;28;20158;-61
2021/01/29 07:14:50;;;;;;;11.65;5.07;;;;;;;7.02;100.00;98983.81;5065514;28;20048;-61
2021/01/29 07:17:27;;;;;;;12.40;5.30;;;;;;;7.11;100.00;98987.38;5058806;28;20049;-62
2021/01/29 07:20:18;;;;;;;14.45;5.53;;;;;;;7.07;100.00;98999.41;5055291;28;20047;-62
2021/01/29 07:22:58;;;;;;;18.25;5.68;;;;;;;7.07;100.00;99004.75;5082612;28;20064;-62
2021/01/29 07:25:32;;;;;;;12.15;5.25;;;;;;;7.04;100.00;99008.59;5083220;28;20048;-62
2021/01/29 07:28:14;;;;;;;9.63;4.90;;;;;;;7.01;100.00;99003.56;5083526;28;20040;-61
2021/01/29 07:31:00;;;;;;;14.75;5.50;;;;;;;7.04;100.00;99010.41;5082121;28;20056;-61
2021/01/29 07:33:33;;;;;;;10.25;5.07;;;;;;;7.04;100.00;99005.91;4991757;28;20101;-62
2021/01/29 07:36:44;;;;;;;15.52;4.85;;;;;;;7.03;100.00;99012.25;4989390;28;20052;-61
2021/01/29 07:39:39;;;;;;;15.23;4.30;;;;;;;7.11;100.00;99014.97;4923748;28;20824;-61
2021/01/29 07:42:19;;;;;;;13.55;4.47;;;;;;;7.09;100.00;99016.94;4984928;28;20584;-62
2021/01/29 07:44:58;;;;;;;8.15;4.00;;;;;;;7.07;100.00;99015.44;5001781;28;20094;-61
2021/01/29 07:47:55;;;;;;;11.70;4.07;;;;;;;7.08;100.00;99022.47;5002249;28;20182;-61
2021/01/29 07:50:30;;;;;;;12.25;3.47;;;;;;;7.07;100.00;99016.28;5002558;28;20547;-61
2021/01/29 07:53:03;;;;;;;18.17;4.18;;;;;;;7.12;100.00;99023.81;5002375;28;20113;-61
2021/01/29 07:55:31;;;;;;;13.13;3.70;;;;;;;7.08;100.00;99025.13;5000022;28;20082;-61
2021/01/29 07:58:16;;;;;;;12.15;3.42;;;;;;;7.13;100.00;99026.34;4998606;28;20150;-61
2021/01/29 08:00:58;;;;;;;13.20;3.25;;;;;;;7.09;100.00;99029.50;4983356;28;20052;-62
2021/01/29 08:03:49;;;;;;;14.75;3.67;;;;;;;7.13;100.00;99025.50;4985927;28;20105;-61
2021/01/29 08:06:20;;;;;;;15.25;4.45;;;;;;;7.16;100.00;99035.91;5079684;28;20048;-61
2021/01/29 08:08:53;;;;;;;11.32;4.30;;;;;;;7.23;100.00;99034.25;5062647;28;20052;-61
2021/01/29 08:11:19;;;;;;;10.05;3.80;;;;;;;7.23;100.00;99041.44;4986429;28;25152;-61
2021/01/29 08:14:14;;;;;;;13.65;4.45;;;;;;;7.25;100.00;99037.59;4989423;28;20056;-61
2021/01/29 08:17:09;;;;;;;13.93;4.10;;;;;;;7.25;100.00;99050.97;5002118;28;20056;-61
2021/01/29 08:19:47;;;;;;;11.40;5.20;;;;;;;7.28;100.00;99053.34;5080368;28;20040;-61
2021/01/29 08:22:29;;;;;;;10.98;4.60;;;;;;;7.33;100.00;99056.38;5081323;28;20044;-62
2021/01/29 08:25:17;;;;;;;10.57;4.10;;;;;;;7.32;100.00;99064.56;5082033;28;20101;-62
2021/01/29 08:28:23;;;;;;;13.18;4.60;;;;;;;7.36;100.00;99058.75;5082586;28;20435;-61
2021/01/29 08:31:19;;;;;;;9.98;4.05;;;;;;;7.35;100.00;99067.75;5028199;28;20106;-61
2021/01/29 08:34:18;;;;;;;11.20;4.03;;;;;;;7.38;100.00;99069.28;5066820;28;20048;-62
2021/01/29 08:36:46;;;;;;;;;;;;;;;7.38;100.00;99069.28;5049233;28;20058;-62
2021/01/29 08:39:21;;;;;;;14.27;4.72;;;;;;;7.37;100.00;99076.47;4979200;28;20400;-62
2021/01/29 08:41:58;;;;;;;19.02;5.50;;;;;;;7.40;100.00;99074.47;4972537;28;20509;-62
2021/01/29 08:44:48;;;;;;;17.10;5.80;;;;;;;7.46;100.00;99084.53;4989041;28;20170;-62
2021/01/29 08:47:22;;;;;;;;;;;;;;;7.49;100.00;99089.56;4967653;28;20052;-62
2021/01/29 08:50:13;;;;;;;19.17;5.22;;;;;;;7.50;100.00;99088.59;4976485;28;19939;-62
2021/01/29 08:53:05;;;;;;;21.95;5.93;;;;;;;7.48;100.00;99093.25;4976327;28;20048;-62
2021/01/29 08:56:01;;;;;;;23.48;5.60;;;;;;;7.53;100.00;99107.81;5036833;22;20044;-63
2021/01/29 08:58:34;;;;;;;31.02;6.15;;;;;;;7.53;100.00;99109.69;4930727;28;20745;-62
2021/01/29 09:01:08;;;;;;;26.30;5.43;;;;;;;7.55;100.00;99126.41;4942550;28;20063;-61
2021/01/29 09:03:39;;;;;;;24.05;5.90;;;;;;;7.51;100.00;99122.41;4943574;28;20091;-62
2021/01/29 09:06:15;;;;;;;23.85;5.85;;;;;;;7.50;100.00;99129.56;4947845;28;20658;-63
2021/01/29 09:08:41;;;;;;;27.42;5.40;;;;;;;7.51;100.00;99130.44;4953573;28;20049;-62
2021/01/29 09:11:22;;;;;;;31.55;6.18;;;;;;;7.55;100.00;99131.75;4933841;28;21111;-62
2021/01/29 09:13:57;;;;;;;31.60;6.47;;;;;;;7.56;100.00;99133.44;4943479;28;20054;-62
2021/01/29 10:05:17;;;;;;;27.77;5.15;;;;;;;7.60;100.00;99201.75;4847860;22;20062;-64
2021/01/29 10:07:54;;;;;;;27.63;5.20;;;;;;;7.58;100.00;99205.56;4900855;28;20072;-65
2021/01/29 10:10:31;;;;;;;28.80;5.90;;;;;;;7.61;99.59;99200.75;4900966;28;20490;-63
2021/01/29 10:13:03;;;;;;;34.42;5.63;;;;;;;7.65;100.00;99210.13;4911557;28;20060;-61
2021/01/29 11:01:01;;;;;;;36.38;5.43;;;;;;;8.22;94.53;99232.88;5017534;23;20884;-62
2021/01/29 11:03:54;;;;;;;30.58;5.72;;;;;;;8.27;94.51;99233.22;4957074;28;20552;-64
2021/01/29 11:06:26;;;;;;;34.53;6.30;;;;;;;8.27;94.07;99233.22;4945225;28;20056;-63
2021/01/29 11:08:55;;;;;;;33.72;5.53;;;;;;;8.30;94.18;99246.31;4946194;28;20056;-63
2021/01/29 11:11:27;;;;;;;33.88;5.82;;;;;;;8.28;93.91;99240.28;4943839;28;20139;-63
2021/01/29 11:14:16;;;;;;;37.75;5.95;;;;;;;8.38;94.10;99240.97;4931886;28;20098;-64
2021/01/29 11:16:50;;;;;;;29.05;4.85;;;;;;;8.41;93.81;99247.88;4939868;28;20494;-63
2021/01/29 11:19:21;;;;;;;38.15;6.95;;;;;;;8.39;94.10;99253.41;4927888;28;20049;-63
2021/01/29 11:22:07;;;;;;;30.35;5.78;;;;;;;8.39;93.90;99248.03;4928581;28;20502;-64
2021/01/29 11:24:41;;;;;;;35.65;5.65;;;;;;;8.39;93.68;99245.34;4938939;28;20172;-65
2021/01/29 11:27:19;;;;;;;31.02;5.53;;;;;;;8.35;93.83;99259.25;4942322;28;20151;-62
2021/01/29 11:29:54;;;;;;;31.15;6.00;;;;;;;8.34;94.23;99268.28;4940665;28;20048;-68
2021/01/29 11:32:33;;;;;;;33.55;5.60;;;;;;;8.39;94.45;99263.25;4943448;28;20057;-65
2021/01/29 11:35:15;;;;;;;33.35;5.88;;;;;;;8.39;93.34;99257.91;4950743;28;20557;-63
2021/01/29 11:38:14;;;;;;;29.63;5.03;;;;;;;8.38;93.35;99273.16;4939205;28;20057;-69
2021/01/29 11:40:49;;;;;;;28.13;4.70;;;;;;;8.35;93.44;99278.00;4940097;28;20641;-63
2021/01/29 11:43:27;;;;;;;35.35;5.45;;;;;;;8.42;93.37;99268.28;4940555;28;20061;-68
2021/01/29 11:46:10;;;;;;;23.50;5.17;;;;;;;8.44;93.57;99270.84;4946848;28;20480;-62
2021/01/29 11:48:45;;;;;;;29.95;4.72;;;;;;;8.46;92.89;99271.53;4935928;28;25720;-63
2021/01/29 11:51:19;;;;;;;32.30;5.35;;;;;;;8.47;93.25;99273.22;4925131;28;20057;-68
2021/01/29 11:53:56;;;;;;;31.80;6.20;;;;;;;8.50;93.33;99270.22;4927487;28;20211;-64
2021/01/29 11:56:28;;;;;;;25.60;4.70;;;;;;;8.55;92.86;99270.56;4925703;28;20053;-64
2021/01/29 11:59:00;;;;;;;27.98;5.00;;;;;;;8.60;93.31;99270.94;4923614;28;20061;-63
2021/01/29 12:01:31;;;;;;;30.38;5.38;;;;;;;8.63;93.00;99270.59;4921247;28;20447;-67
2021/01/29 12:04:05;;;;;;;30.05;5.22;;;;;;;8.58;92.85;99267.56;4917176;28;20061;-64
2021/01/29 12:06:35;;;;;;;28.35;5.18;;;;;;;8.59;92.66;99271.94;4915670;28;20134;-64
2021/01/29 12:09:05;;;;;;;29.30;5.22;;;;;;;8.66;92.68;99275.63;4919150;28;20199;-64
2021/01/29 12:11:38;;;;;;;22.95;4.38;;;;;;;8.68;92.23;99270.13;4923579;28;21099;-68
2021/01/29 12:14:14;;;;;;;24.08;4.18;;;;;;;8.75;92.39;99271.97;4919665;28;20087;-63
2021/01/29 12:16:41;;;;;;;33.38;4.43;;;;;;;8.82;92.20;99274.84;4934908;28;20053;-65
2021/01/29 12:19:10;;;;;;;35.65;5.28;;;;;;;8.85;92.15;99279.03;4943404;28;21081;-64
2021/01/29 12:21:46;;;;;;;23.67;5.30;;;;;;;8.85;91.60;99279.03;5044015;22;20064;-69
2021/01/29 12:24:23;;;;;;;28.23;4.82;;;;;;;8.82;91.72;99271.31;4923075;28;20055;-64
2021/01/29 12:26:58;;;;;;;31.88;4.53;;;;;;;8.81;91.04;99288.44;4929900;28;20057;-64
2021/01/29 12:29:31;;;;;;;31.20;4.60;;;;;;;8.83;91.44;99281.03;4932267;28;20424;-69
2021/01/29 12:32:26;;;;;;;29.77;5.15;;;;;;;8.80;91.45;99276.84;4922184;28;20157;-64
2021/01/29 12:35:04;;;;;;;24.33;4.45;;;;;;;8.88;91.26;99276.03;4911854;28;20052;-64
2021/01/29 12:37:33;;;;;;;25.70;4.10;;;;;;;8.90;90.93;99271.34;4945835;28;20102;-66
2021/01/29 12:40:05;;;;;;;27.55;5.03;;;;;;;8.87;90.54;99269.00;4942045;28;20575;-64
2021/01/29 12:42:49;;;;;;;28.13;5.20;;;;;;;8.89;90.55;99280.38;4914442;28;20045;-64
2021/01/29 12:45:22;;;;;;;25.33;4.50;;;;;;;8.97;90.86;99269.69;4919365;28;20569;-70
2021/01/29 12:47:56;;;;;;;27.80;4.80;;;;;;;8.93;90.89;99271.00;4920355;28;20538;-64
2021/01/29 12:50:37;;;;;;;34.15;4.40;;;;;;;8.90;90.83;99282.06;4921517;28;20942;-65
2021/01/29 12:53:11;;;;;;;21.92;4.30;;;;;;;8.86;90.47;99275.34;4923016;28;22712;-69
2021/01/29 12:55:48;;;;;;;26.58;4.40;;;;;;;8.90;90.78;99287.44;4923697;28;20057;-65
2021/01/29 12:58:16;;;;;;;20.50;4.38;;;;;;;8.92;90.54;99283.59;4926366;28;20154;-63
2021/01/29 13:00:44;;;;;;;22.83;4.45;;;;;;;8.84;90.75;99288.94;4925532;28;20115;-64
2021/01/29 13:03:24;;;;;;;24.33;5.07;;;;;;;8.91;90.36;99273.84;4932091;28;20132;-64
2021/01/29 13:06:09;;;;;;;20.75;5.38;;;;;;;8.95;90.01;99274.34;4936635;28;20140;-64
2021/01/29 13:09:07;;;;;;;26.25;3.95;;;;;;;8.99;89.86;99286.44;4944612;28;21529;-65
2021/01/29 13:11:43;;;;;;;27.55;4.70;;;;;;;8.98;90.17;99283.94;4930165;28;20564;-63
2021/01/29 13:14:23;;;;;;;24.92;4.90;;;;;;;9.02;90.10;99285.28;4922174;28;20049;-65
2021/01/29 13:17:09;;;;;;;25.83;4.30;;;;;;;9.01;89.94;99276.41;4939860;28;20052;-69
2021/01/29 13:19:38;;;;;;;19.60;5.05;;;;;;;8.92;89.92;99274.69;4947855;28;20574;-63
2021/01/29 13:22:23;;;;;;;28.65;4.93;;;;;;;8.91;89.63;99283.75;4958441;28;20064;-64
2021/01/29 13:25:01;;;;;;;29.60;4.40;;;;;;;8.88;89.80;99268.00;4980976;28;20063;-69
2021/01/29 13:27:32;;;;;;;30.65;6.15;;;;;;;8.93;89.60;99273.69;4978157;28;20957;-64
2021/01/29 13:30:14;;;;;;;23.38;4.57;;;;;;;8.96;89.67;99280.59;4979372;28;20135;-64
2021/01/29 13:32:42;;;;;;;23.55;4.68;;;;;;;8.92;89.45;99272.88;4981213;28;20060;-66
2021/01/29 13:35:11;;;;;;;23.85;4.53;;;;;;;8.88;89.59;99268.00;4978562;28;20060;-64
2021/01/29 13:37:38;;;;;;;;;;;;;;;8.85;89.85;99265.63;4978127;28;20091;-65
2021/01/29 13:40:09;;;;;;;19.20;4.03;;;;;;;8.88;89.99;99273.38;4978400;28;20072;-64
2021/01/29 13:42:37;;;;;;;28.58;5.00;;;;;;;8.90;89.57;99272.16;4969337;28;20067;-64
2021/01/29 13:45:12;;;;;;;21.38;3.92;;;;;;;8.85;89.79;99281.72;4957148;28;20085;-68
2021/01/29 13:47:41;;;;;;;31.88;5.78;;;;;;;8.78;89.81;99278.88;4959782;28;20508;-64
2021/01/29 13:50:21;;;;;;;23.85;4.15;;;;;;;8.73;89.91;99271.31;4958625;28;20105;-64
2021/01/29 13:52:50;;;;;;;28.65;4.63;;;;;;;8.67;90.12;99277.31;4958727;28;20056;-69